Sea-land Charger — WDB9948 — position and weather

sailwx.info

Track history (hours):
 
Tides and Currents Weather Stations Pressure Air Temp Water Temp Dewpoint Dewpoint Depression Visibility Wind Speed Wind Dir Waves Ship Positions

Sea-land Charger

Owner: MAERSK LINE, LIMITED, NORFOLK, VA. More information available from US FCC via Universal Licensing System.

Last reported at 2015-Aug-01 16:08 UTC. Time now 2015-Aug-03 08:34 UTC.
Position N 01°16' E 104°13'.

Type: Cargo ship. MMSI: 303279000.

Date/timePositionNaut miles runAvg speedWind from/ knotsBaromVisibWave heightAir tempDewpointWater temp
2015-Aug-01 16:08N 01°16' E 104°13'814.8
2015-Aug-01 15:33N 01°15' E 104°05'1414.5
2015-Aug-01 14:33N 01°11' E 103°51'  
2015-Jul-29 22:25N 02°11' E 101°54'2111.5
2015-Jul-29 20:33N 02°25' E 101°37'1010.6
2015-Jul-29 19:34N 02°31' E 101°29'1010.2
2015-Jul-29 18:33N 02°37' E 101°20'20 9.5
2015-Jul-29 16:31N 02°46' E 101°03'18 9.1
2015-Jul-29 14:33N 02°57' E 100°50'9 9.4
2015-Jul-29 13:34N 03°03' E 100°42'20 9.5
2015-Jul-29 11:26N 03°18' E 100°28'9 9.6
2015-Jul-29 10:31N 03°24' E 100°22'2110.0
2015-Jul-29 08:24N 03°39' E 100°07'  
Track history (hours):
 
Tides and Currents Weather Stations Pressure Air Temp Water Temp Dewpoint Dewpoint Depression Visibility Wind Speed Wind Dir Waves Ship Positions

Sea-land Charger

Owner: MAERSK LINE, LIMITED, NORFOLK, VA. More information available from US FCC via Universal Licensing System.

Last reported at 2015-Aug-01 16:08 UTC. Time now 2015-Aug-03 08:34 UTC.
Position N 01°16' E 104°13'.

Type: Cargo ship. MMSI: 303279000.

Date/timePositionNaut miles runAvg speedWind from/ knotsBaromVisibWave heightAir tempDewpointWater temp
2015-Aug-01 16:08N 01°16' E 104°13'814.8
2015-Aug-01 15:33N 01°15' E 104°05'1414.5
2015-Aug-01 14:33N 01°11' E 103°51'  
2015-Jul-29 22:25N 02°11' E 101°54'2111.5
2015-Jul-29 20:33N 02°25' E 101°37'1010.6
2015-Jul-29 19:34N 02°31' E 101°29'1010.2
2015-Jul-29 18:33N 02°37' E 101°20'20 9.5
2015-Jul-29 16:31N 02°46' E 101°03'18 9.1
2015-Jul-29 14:33N 02°57' E 100°50'9 9.4
2015-Jul-29 13:34N 03°03' E 100°42'20 9.5
2015-Jul-29 11:26N 03°18' E 100°28'9 9.6
2015-Jul-29 10:31N 03°24' E 100°22'2110.0
2015-Jul-29 08:24N 03°39' E 100°07'  

Dump ship's entire track history